Latest Weather Observations for Cape Byron

IDN60801

Issued at 6:03 am EST Sunday 25 June 2017 (issued every 30 minutes, with the page automatically refreshed every 10 minutes)

About weather observations | Map of weather stations | Latest weather observations for NSW | Other Formats
Station Details ID: 058216 Name: CAPE BYRON AWS Lat: -28.64 Lon: 153.64 Height: 95.0 m
Data from the previous 72 hours. | See also: Recent months at Cape Byron
Date/Time
EST
Temp
°C
App
Temp
°C
Dew
Point
°C
Rel
Hum
%
Delta-T
°C
Wind Press
QNH
hPa
Press
MSL
hPa
Rain since
9am
mm
Dir  Spd
km/h
Gust
km/h
Spd
kts
Gust
kts
25/06:00am 16.2 14.2 10.3 68 3.1 WNW 11 13 6 7 1018.9 1018.7 0.0
25/05:30am 16.3 14.4 10.4 68 3.1 WNW 11 13 6 7 1018.9 1018.7 0.0
25/05:00am 16.4 14.9 10.5 68 3.1 WNW 9 11 5 6 1018.6 1018.4 0.0
25/04:30am 16.3 15.3 10.4 68 3.1 WNW 6 7 3 4 1018.5 1018.3 0.0
25/04:00am 16.3 15.1 10.4 68 3.1 WNW 7 9 4 5 1018.5 1018.3 0.0
25/03:30am 16.2 14.6 10.3 68 3.1 WNW 9 11 5 6 1018.7 1018.5 0.0
25/03:00am 16.4 15.2 10.3 67 3.2 W 7 9 4 5 1018.9 1018.7 0.0
25/02:30am 16.2 14.6 10.1 67 3.2 WNW 9 13 5 7 1018.9 1018.7 0.0
25/02:00am 16.2 14.9 10.1 67 3.2 WNW 7 9 4 5 1018.8 1018.6 0.0
25/01:30am 16.4 15.2 10.3 67 3.2 NW 7 9 4 5 1018.8 1018.6 0.0
25/01:00am 16.4 15.5 10.5 68 3.1 NW 6 7 3 4 1018.9 1018.7 0.0
25/12:30am 16.2 15.2 10.3 68 3.1 NW 6 7 3 4 1019.1 1018.9 0.0
25/12:00am 16.9 16.5 11.2 69 3.1 ESE 4 7 2 4 1019.2 1019.0 0.0
 
Date/Time
EST
Temp
°C
App
Temp
°C
Dew
Point
°C
Rel
Hum
%
Delta-T
°C
Wind Press
QNH
hPa
Press
MSL
hPa
Rain since
9am
mm
Dir  Spd
km/h
Gust
km/h
Spd
kts
Gust
kts
24/11:30pm 16.6 15.7 10.7 68 3.2 SE 6 9 3 5 1019.3 1019.1 0.0
24/11:00pm 16.8 15.9 10.6 67 3.3 E 6 7 3 4 1019.2 1019.0 0.0
24/10:30pm 17.0 15.8 10.4 65 3.5 ENE 7 11 4 6 1019.2 1019.0 0.0
24/10:00pm 17.2 15.0 10.8 66 3.4 E 13 19 7 10 1019.2 1019.0 0.0
24/09:30pm 17.5 14.6 11.1 66 3.5 ESE 17 20 9 11 1019.1 1018.9 0.0
24/09:00pm 17.9 15.0 11.0 64 3.7 SE 17 22 9 12 1019.0 1018.8 0.0
24/08:30pm 17.8 14.5 10.9 64 3.7 ESE 19 26 10 14 1018.9 1018.7 0.0
24/08:00pm 17.9 14.1 11.2 65 3.6 ESE 22 28 12 15 1018.6 1018.4 0.0
24/07:30pm 18.2 13.9 10.8 62 4.0 SE 24 32 13 17 1018.4 1018.2 0.0
24/07:00pm 18.3 14.0 10.7 61 4.1 SE 24 32 13 17 1018.2 1018.0 0.0
24/06:30pm 18.3 14.1 9.6 57 4.6 SE 22 30 12 16 1018.2 1018.0 0.0
24/06:00pm 18.6 15.0 10.4 59 4.4 SE 20 28 11 15 1017.6 1017.4 0.0
24/05:30pm 18.6 15.0 9.7 56 4.7 SSE 19 26 10 14 1017.5 1017.3 0.0
24/05:00pm 18.6 15.0 9.7 56 4.7 SSE 19 24 10 13 1017.2 1017.0 0.0
24/04:30pm 18.7 14.9 9.8 56 4.7 S 20 26 11 14 1016.9 1016.7 0.0
24/04:00pm 18.6 14.7 10.9 61 4.2 S 22 28 12 15 1016.8 1016.6 0.0
24/03:30pm 18.8 14.5 10.9 60 4.3 S 24 30 13 16 1016.7 1016.5 0.0
24/03:00pm 19.3 13.0 8.9 51 5.5 S 32 37 17 20 1016.4 1016.2 0.0
24/02:30pm 19.4 13.3 9.6 53 5.2 SSW 32 35 17 19 1016.1 1016.0 0.0
24/02:00pm 20.0 15.6 10.4 54 5.2 S 24 30 13 16 1016.0 1015.9 0.0
24/01:30pm 20.2 16.1 8.8 48 6.0 SSW 20 28 11 15 1016.3 1016.1 0.0
24/01:00pm 20.6 15.7 8.6 46 6.3 SW 24 32 13 17 1016.3 1016.1 0.0
24/12:30pm 20.4 15.6 9.0 48 6.0 SW 24 30 13 16 1016.4 1016.2 0.0
24/12:00pm 20.4 15.6 9.0 48 6.0 SW 24 35 13 19 1017.0 1016.8 0.0
24/11:30am 20.1 16.2 9.4 50 5.7 WSW 20 32 11 17 1017.4 1017.2 0.0
24/11:00am 19.6 16.1 10.3 55 5.0 WSW 19 32 10 17 1017.8 1017.6 0.0
24/10:30am 19.5 15.9 9.7 53 5.2 W 19 28 10 15 1018.1 1017.9 0.0
24/10:00am 18.9 15.8 11.7 63 4.0 W 19 24 10 13 1018.4 1018.2 0.0
24/09:30am 18.1 14.4 10.2 60 4.2 W 20 28 11 15 1018.4 1018.2 0.0
24/09:00am 17.4 13.9 8.8 57 4.5 W 17 22 9 12 1018.3 1018.1 0.0
24/08:30am 17.6 13.8 7.6 52 5.1 WNW 17 24 9 13 1017.8 1017.6 0.0
24/08:00am 17.4 13.1 7.7 53 4.9 WNW 20 26 11 14 1017.7 1017.5 0.0
24/07:30am 16.8 13.5 8.2 57 4.4 WNW 15 20 8 11 1017.2 1017.0 0.0
24/07:00am 16.9 13.2 8.1 56 4.5 WNW 17 20 9 11 1017.0 1016.8 0.0
24/06:30am 17.1 13.8 8.0 55 4.6 WNW 15 19 8 10 1016.8 1016.6 0.0
24/06:00am 16.8 13.3 8.8 59 4.1 WNW 17 24 9 13 1016.3 1016.1 0.0
24/05:30am 15.1 12.3 9.9 71 2.7 WNW 15 20 8 11 1015.9 1015.8 0.0
24/05:00am 14.9 12.1 9.9 72 2.6 NW 15 20 8 11 1015.8 1015.7 0.0
24/04:30am 14.1 11.9 10.9 81 1.7 NW 13 17 7 9 1015.6 1015.5 0.0
24/04:00am 14.0 11.9 11.0 82 1.6 NW 13 17 7 9 1015.7 1015.6 0.0
24/03:30am 14.0 12.4 11.5 85 1.3 NW 11 19 6 10 1015.8 1015.7 0.0
24/03:00am 14.3 12.6 12.3 88 1.1 NNW 13 20 7 11 1016.1 1016.0 0.0
24/02:30am 14.3 12.7 12.7 90 0.9 NNW 13 19 7 10 1016.1 1016.0 0.0
24/02:00am 14.7 13.1 12.9 89 1.0 NNW 13 20 7 11 1016.3 1016.1 0.0
24/01:30am 15.1 13.3 12.1 82 1.6 NNW 13 20 7 11 1016.7 1016.5 0.0
24/01:00am 14.7 13.1 11.7 82 1.6 NW 11 17 6 9 1017.5 1017.3 0.0
24/12:30am 13.6 11.8 12.2 91 0.8 NW 13 20 7 11 1017.7 1017.5 0.0
24/12:00am 14.7 13.6 13.1 90 0.9 NW 11 15 6 8 1017.6 1017.4 0.0
 
Date/Time
EST
Temp
°C
App
Temp
°C
Dew
Point
°C
Rel
Hum
%
Delta-T
°C
Wind Press
QNH
hPa
Press
MSL
hPa
Rain since
9am
mm
Dir  Spd
km/h
Gust
km/h
Spd
kts
Gust
kts
23/11:30pm 14.9 13.6 13.8 93 0.6 NNW 13 15 7 8 1018.0 1017.8 0.0
23/11:00pm 14.5 13.4 13.0 91 0.8 NW 11 17 6 9 1018.3 1018.1 0.0
23/10:30pm 14.1 13.1 13.3 95 0.4 NW 11 17 6 9 1018.8 1018.6 0.0
23/10:00pm 14.6 13.4 14.0 96 0.3 NW 13 22 7 12 1018.6 1018.4 0.0
23/09:30pm 14.6 13.8 14.0 96 0.3 NW 11 15 6 8 1018.8 1018.6 0.0
23/09:00pm 15.0 14.3 14.4 96 0.3 NW 11 13 6 7 1018.8 1018.6 0.0
23/08:30pm 14.9 14.5 14.1 95 0.5 NW 9 13 5 7 1018.9 1018.7 0.0
23/08:00pm 15.2 14.4 14.1 93 0.6 NW 11 15 6 8 1019.0 1018.8 0.0
23/07:30pm 15.9 15.4 13.9 88 1.1 NW 9 15 5 8 1019.0 1018.8 0.0
23/07:00pm 17.8 16.8 14.5 81 1.9 N 13 20 7 11 1018.8 1018.6 0.0
23/06:30pm 18.1 16.2 14.2 78 2.2 N 17 22 9 12 1018.5 1018.3 0.0
23/06:00pm 18.0 16.1 14.1 78 2.2 N 17 24 9 13 1018.4 1018.2 0.0
23/05:30pm 18.1 16.5 13.8 76 2.5 NNE 15 19 8 10 1018.7 1018.5 0.0
23/05:00pm 18.2 16.6 13.9 76 2.5 NNE 15 22 8 12 1018.6 1018.4 0.0
23/04:30pm 18.4 17.2 14.1 76 2.5 NNE 13 17 7 9 1018.7 1018.5 0.0
23/04:00pm 18.9 18.2 14.2 74 2.7 NNE 11 15 6 8 1018.6 1018.4 0.0
23/03:30pm 19.5 18.8 14.3 72 3.0 NNE 11 17 6 9 1018.7 1018.5 0.0
23/03:00pm 19.7 18.6 14.3 71 3.1 ENE 13 15 7 8 1018.8 1018.6 0.0
23/02:30pm 19.9 18.4 14.3 70 3.3 ENE 15 19 8 10 1018.7 1018.5 0.0
23/02:00pm 20.3 19.4 14.9 71 3.2 ENE 13 17 7 9 1018.9 1018.7 0.0
23/01:30pm 20.5 19.7 15.1 71 3.2 E 13 17 7 9 1019.5 1019.3 0.0
23/01:00pm 20.2 19.6 14.6 70 3.3 E 11 13 6 7 1019.9 1019.7 0.0
23/12:30pm 20.1 19.6 14.9 72 3.1 E 11 15 6 8 1020.4 1020.3 0.0
23/12:00pm 19.8 19.6 14.8 73 2.9 E 9 13 5 7 1020.9 1020.8 0.0
23/11:30am 19.2 19.2 15.1 77 2.4 SSE 9 13 5 7 1021.6 1021.5 0.0
23/11:00am 18.5 18.2 14.4 77 2.4 S 9 11 5 6 1022.3 1022.2 0.0
23/10:30am 17.8 17.1 14.3 80 2.0 WSW 11 13 6 7 1022.8 1022.7 0.0
23/10:00am 17.1 16.0 14.2 83 1.7 WSW 13 15 7 8 1023.1 1023.0 0.0
23/09:30am 16.2 14.9 13.7 85 1.4 WSW 13 20 7 11 1023.4 1023.3 0.0
23/09:00am 15.5 14.0 13.2 86 1.3 WSW 13 19 7 10 1023.3 1023.2 0.4
23/08:30am 14.7 12.7 12.7 88 1.1 WSW 15 19 8 10 1023.0 1022.9 0.4
23/08:00am 14.5 10.7 12.5 88 1.1 WSW 24 30 13 16 1022.8 1022.7 0.4
23/07:30am 14.0 10.1 12.2 89 1.0 W 24 33 13 18 1022.5 1022.4 0.4
23/07:00am 14.0 10.2 12.4 90 0.9 WSW 24 30 13 16 1022.4 1022.3 0.4
23/06:30am 13.8 9.2 12.4 91 0.8 WSW 28 35 15 19 1022.2 1022.1 0.4
23/06:00am 13.8 9.6 12.5 92 0.7 WSW 26 33 14 18 1021.8 1021.7 0.4
23/05:30am 14.0 9.5 12.6 91 0.8 WSW 28 33 15 18 1021.6 1021.5 0.4
23/05:00am 14.0 9.8 12.4 90 0.9 WSW 26 33 14 18 1021.5 1021.4 0.4
23/04:30am 14.2 9.7 12.6 90 0.9 WSW 28 35 15 19 1021.6 1021.5 0.4
23/04:00am 14.1 9.2 12.5 90 0.9 WSW 30 37 16 20 1021.8 1021.7 0.4
23/03:30am 14.3 9.8 12.5 89 1.0 WSW 28 35 15 19 1022.0 1021.9 0.4
23/03:00am 14.2 10.1 12.8 91 0.8 WSW 26 32 14 17 1022.1 1022.0 0.4
23/02:30am 14.3 10.3 12.9 91 0.8 WSW 26 32 14 17 1022.1 1022.0 0.4
23/02:00am 14.5 10.9 13.0 91 0.8 WSW 24 32 13 17 1022.4 1022.3 0.4
23/01:30am 14.9 11.4 13.3 90 0.9 WSW 24 30 13 16 1022.7 1022.6 0.4
23/01:00am 15.0 11.9 13.4 90 0.9 WSW 22 26 12 14 1022.9 1022.8 0.4
23/12:30am 15.2 13.1 13.6 90 0.9 SW 17 22 9 12 1023.0 1022.9 0.4
23/12:00am 15.9 14.5 14.4 91 0.9 SW 15 19 8 10 1023.4 1023.3 0.4
 
Date/Time
EST
Temp
°C
App
Temp
°C
Dew
Point
°C
Rel
Hum
%
Delta-T
°C
Wind Press
QNH
hPa
Press
MSL
hPa
Rain since
9am
mm
Dir  Spd
km/h
Gust
km/h
Spd
kts
Gust
kts
22/11:30pm 16.3 14.7 15.0 92 0.8 SW 17 20 9 11 1023.6 1023.5 0.4
22/11:00pm 16.2 15.1 15.2 94 0.6 SSW 15 20 8 11 1024.1 1024.0 0.2
22/10:30pm 16.0 13.8 15.0 94 0.6 SW 20 33 11 18 1024.1 1024.0 0.2
22/10:00pm 15.3 12.8 14.0 92 0.7 SW 20 28 11 15 1024.2 1024.1 0.2
22/09:30pm 15.8 13.7 13.6 87 1.2 SW 17 24 9 13 1024.2 1024.1 0.2
22/09:00pm 16.5 13.8 13.0 80 1.9 SW 19 22 10 12 1024.3 1024.2 0.0
22/08:30pm 16.4 13.8 13.3 82 1.7 SW 19 24 10 13 1024.5 1024.4 0.0
22/08:00pm 15.9 13.2 13.0 83 1.6 SW 19 22 10 12 1024.4 1024.3 0.0
22/07:30pm 16.0 13.4 13.3 84 1.5 SW 19 22 10 12 1024.4 1024.3 0.0
22/07:00pm 15.9 13.3 13.2 84 1.5 SW 19 26 10 14 1024.3 1024.2 0.0
22/06:30pm 16.0 13.8 13.3 84 1.5 SSW 17 20 9 11 1024.1 1024.0 0.0
22/06:00pm 16.4 13.8 13.1 81 1.8 SSW 19 24 10 13 1023.9 1023.8 0.0
22/05:30pm 16.6 14.3 13.1 80 2.0 SSW 17 20 9 11 1023.8 1023.7 0.0
22/05:00pm 18.0 14.6 12.5 70 3.1 SSW 22 26 12 14 1023.6 1023.5 0.0
22/04:30pm 18.1 15.2 13.0 72 2.9 S 20 24 11 13 1023.4 1023.3 0.0
22/04:00pm 18.3 15.4 13.0 71 3.0 S 20 24 11 13 1023.4 1023.3 0.0
22/03:30pm 18.5 15.5 13.8 74 2.7 S 22 26 12 14 1023.3 1023.2 0.0
22/03:00pm 18.6 15.8 14.3 76 2.5 S 22 28 12 15 1023.3 1023.2 0.0
22/02:30pm 18.8 15.6 14.3 75 2.6 S 24 26 13 14 1023.2 1023.1 0.0
22/02:00pm 18.9 16.1 14.2 74 2.7 S 22 28 12 15 1023.4 1023.3 0.0
22/01:30pm 19.2 16.9 14.2 73 2.9 SSW 19 24 10 13 1023.5 1023.4 0.0
22/01:00pm 19.0 16.5 14.1 73 2.8 SSW 20 24 11 13 1023.9 1023.8 0.0
22/12:30pm 18.9 16.5 14.4 75 2.6 SSW 20 26 11 14 1024.3 1024.2 0.0
22/12:00pm 18.5 16.0 14.2 76 2.5 SSW 20 28 11 15 1024.7 1024.6 0.0
22/11:30am 18.4 16.2 14.5 78 2.3 SSW 19 28 10 15 1025.2 1025.1 0.0
22/11:00am 18.1 15.2 14.0 77 2.3 SW 22 30 12 16 1025.6 1025.5 0.0
22/10:30am 17.6 14.7 14.1 80 2.0 SW 22 32 12 17 1026.0 1025.9 0.0
22/10:00am 16.3 13.1 13.0 81 1.8 SW 22 32 12 17 1026.1 1026.0 0.0
22/09:30am 15.4 11.2 12.3 82 1.7 SW 26 33 14 18 1026.1 1026.0 0.0
22/09:00am 15.0 10.0 12.1 83 1.6 SW 30 39 16 21 1026.1 1026.0 0.8
22/08:30am 14.7 10.1 12.2 85 1.4 WSW 28 33 15 18 1025.8 1025.7 0.8
22/08:00am 14.1 9.1 12.1 88 1.1 SW 30 35 16 19 1025.4 1025.3 0.8
22/07:30am 14.2 8.8 12.2 88 1.1 SW 32 39 17 21 1025.1 1025.0 0.8
22/07:00am 14.1 9.8 12.1 88 1.1 WSW 26 32 14 17 1024.9 1024.8 0.8
22/06:30am 14.3 10.1 12.3 88 1.1 SW 26 37 14 20 1024.8 1024.7 0.8

Other Formats:

Comma delimited format used in spreadsheet applications
http://www.bom.gov.au/fwo/IDN60801/IDN60801.94599.axf

JavaScript Object Notation format (JSON) in row-major order
http://www.bom.gov.au/fwo/IDN60801/IDN60801.94599.json